sensor_id;sensor_type;location;lat;lon;timestamp;pressure;altitude;pressure_sealevel;temperature;humidity
75424;BME280;64005;55.160;36.002;2024-03-02T00:00:40;100375.72;;;3.50;65.33
75424;BME280;64005;55.160;36.002;2024-03-02T00:03:07;100376.22;;;3.47;65.60
75424;BME280;64005;55.160;36.002;2024-03-02T00:05:37;100379.16;;;3.40;66.16
75424;BME280;64005;55.160;36.002;2024-03-02T00:08:05;100385.84;;;3.44;65.96
75424;BME280;64005;55.160;36.002;2024-03-02T00:10:36;100375.91;;;3.43;66.53
75424;BME280;64005;55.160;36.002;2024-03-02T00:13:06;100386.34;;;3.41;66.70
75424;BME280;64005;55.160;36.002;2024-03-02T00:15:40;100380.25;;;3.39;66.33
75424;BME280;64005;55.160;36.002;2024-03-02T00:18:10;100380.59;;;3.43;66.37
75424;BME280;64005;55.160;36.002;2024-03-02T00:20:40;100378.41;;;3.45;66.38
75424;BME280;64005;55.160;36.002;2024-03-02T00:23:09;100371.88;;;3.51;66.13
75424;BME280;64005;55.160;36.002;2024-03-02T00:25:39;100381.28;;;3.55;65.71
75424;BME280;64005;55.160;36.002;2024-03-02T00:28:14;100394.19;;;3.54;66.14
75424;BME280;64005;55.160;36.002;2024-03-02T00:30:52;100385.88;;;3.49;65.58
75424;BME280;64005;55.160;36.002;2024-03-02T00:33:22;100389.97;;;3.47;66.42
75424;BME280;64005;55.160;36.002;2024-03-02T00:35:52;100388.59;;;3.44;65.93
75424;BME280;64005;55.160;36.002;2024-03-02T00:38:19;100380.00;;;3.41;65.96
75424;BME280;64005;55.160;36.002;2024-03-02T00:40:47;100389.66;;;3.43;66.49
75424;BME280;64005;55.160;36.002;2024-03-02T00:43:44;100386.91;;;3.43;66.37
75424;BME280;64005;55.160;36.002;2024-03-02T00:46:13;100391.59;;;3.43;66.50
75424;BME280;64005;55.160;36.002;2024-03-02T00:48:53;100399.59;;;3.44;66.14
75424;BME280;64005;55.160;36.002;2024-03-02T00:51:24;100377.78;;;3.38;66.82
75424;BME280;64005;55.160;36.002;2024-03-02T00:53:51;100391.88;;;3.46;66.28
75424;BME280;64005;55.160;36.002;2024-03-02T00:56:21;100394.41;;;3.48;65.82
75424;BME280;64005;55.160;36.002;2024-03-02T00:58:49;100388.41;;;3.51;65.82
75424;BME280;64005;55.160;36.002;2024-03-02T01:01:17;100401.88;;;3.52;65.61
75424;BME280;64005;55.160;36.002;2024-03-02T01:03:45;100394.44;;;3.53;66.18
75424;BME280;64005;55.160;36.002;2024-03-02T01:06:13;100395.56;;;3.52;65.93
75424;BME280;64005;55.160;36.002;2024-03-02T01:08:42;100389.72;;;3.48;65.76
75424;BME280;64005;55.160;36.002;2024-03-02T01:11:10;100391.88;;;3.46;66.21
75424;BME280;64005;55.160;36.002;2024-03-02T01:13:37;100389.09;;;3.41;66.62
75424;BME280;64005;55.160;36.002;2024-03-02T01:16:05;100388.50;;;3.39;66.88
75424;BME280;64005;55.160;36.002;2024-03-02T01:18:32;100391.53;;;3.38;66.34
75424;BME280;64005;55.160;36.002;2024-03-02T01:20:59;100395.34;;;3.37;66.57
75424;BME280;64005;55.160;36.002;2024-03-02T01:23:27;100389.03;;;3.36;66.44
75424;BME280;64005;55.160;36.002;2024-03-02T01:25:56;100389.59;;;3.38;66.57
75424;BME280;64005;55.160;36.002;2024-03-02T01:28:24;100382.44;;;3.37;66.94
75424;BME280;64005;55.160;36.002;2024-03-02T01:30:51;100383.00;;;3.39;66.68
75424;BME280;64005;55.160;36.002;2024-03-02T01:33:19;100377.84;;;3.43;66.39
75424;BME280;64005;55.160;36.002;2024-03-02T01:35:47;100388.59;;;3.44;66.23
75424;BME280;64005;55.160;36.002;2024-03-02T01:38:14;100385.56;;;3.46;66.28
75424;BME280;64005;55.160;36.002;2024-03-02T01:40:42;100387.22;;;3.47;66.12
75424;BME280;64005;55.160;36.002;2024-03-02T01:43:11;100391.88;;;3.46;66.78
75424;BME280;64005;55.160;36.002;2024-03-02T01:45:39;100384.66;;;3.40;66.27
75424;BME280;64005;55.160;36.002;2024-03-02T01:48:07;100388.25;;;3.41;66.69
75424;BME280;64005;55.160;36.002;2024-03-02T01:50:35;100389.66;;;3.43;67.09
75424;BME280;64005;55.160;36.002;2024-03-02T01:53:02;100386.91;;;3.43;66.39
75424;BME280;64005;55.160;36.002;2024-03-02T01:55:30;100389.91;;;3.42;66.48
75424;BME280;64005;55.160;36.002;2024-03-02T01:57:58;100387.41;;;3.40;66.68
75424;BME280;64005;55.160;36.002;2024-03-02T02:00:27;100382.75;;;3.41;66.58
75424;BME280;64005;55.160;36.002;2024-03-02T02:02:56;100383.09;;;3.44;66.28
75424;BME280;64005;55.160;36.002;2024-03-02T02:05:23;100385.56;;;3.46;65.86
75424;BME280;64005;55.160;36.002;2024-03-02T02:07:50;100380.06;;;3.46;66.30
75424;BME280;64005;55.160;36.002;2024-03-02T02:10:18;100386.91;;;3.43;66.30
75424;BME280;64005;55.160;36.002;2024-03-02T02:12:46;100389.66;;;3.43;66.31
75424;BME280;64005;55.160;36.002;2024-03-02T02:15:27;100393.00;;;3.45;66.26
75424;BME280;64005;55.160;36.002;2024-03-02T02:17:55;100391.59;;;3.43;66.27
75424;BME280;64005;55.160;36.002;2024-03-02T02:20:43;100382.19;;;3.39;66.31
75424;BME280;64005;55.160;36.002;2024-03-02T02:23:11;100392.59;;;3.37;66.59
75424;BME280;64005;55.160;36.002;2024-03-02T02:25:39;100389.59;;;3.38;66.51
75424;BME280;64005;55.160;36.002;2024-03-02T02:28:07;100392.91;;;3.40;66.15
75424;BME280;64005;55.160;36.002;2024-03-02T02:30:34;100386.84;;;3.38;66.44
75424;BME280;64005;55.160;36.002;2024-03-02T02:33:01;100389.03;;;3.36;66.66
75424;BME280;64005;55.160;36.002;2024-03-02T02:35:29;100393.69;;;3.36;66.26
75424;BME280;64005;55.160;36.002;2024-03-02T02:37:57;100389.28;;;3.35;66.41
75424;BME280;64005;55.160;36.002;2024-03-02T02:40:26;100389.53;;;3.33;66.71
75424;BME280;64005;55.160;36.002;2024-03-02T02:42:55;100397.78;;;3.33;66.69
75424;BME280;64005;55.160;36.002;2024-03-02T02:45:23;100392.03;;;3.35;66.35
75424;BME280;64005;55.160;36.002;2024-03-02T02:47:50;100388.19;;;3.36;66.56
75424;BME280;64005;55.160;36.002;2024-03-02T02:50:17;100394.00;;;3.39;66.07
75424;BME280;64005;55.160;36.002;2024-03-02T02:52:45;100384.41;;;3.42;65.78
75424;BME280;64005;55.160;36.002;2024-03-02T02:55:13;100387.94;;;3.37;65.86
75424;BME280;64005;55.160;36.002;2024-03-02T02:57:43;100387.34;;;3.35;65.76
75424;BME280;64005;55.160;36.002;2024-03-02T03:00:13;100388.97;;;3.31;66.09
75424;BME280;64005;55.160;36.002;2024-03-02T03:02:42;100388.38;;;3.29;65.93
75424;BME280;64005;55.160;36.002;2024-03-02T03:05:10;100384.78;;;3.29;65.87
75424;BME280;64005;55.160;36.002;2024-03-02T03:07:38;100385.63;;;3.29;65.95
75424;BME280;64005;55.160;36.002;2024-03-02T03:10:07;100384.28;;;3.32;65.49
75424;BME280;64005;55.160;36.002;2024-03-02T03:12:35;100375.22;;;3.31;65.17
75424;BME280;64005;55.160;36.002;2024-03-02T03:15:04;100371.28;;;3.27;65.80
75424;BME280;64005;55.160;36.002;2024-03-02T03:17:32;100372.06;;;3.23;65.51
75424;BME280;64005;55.160;36.002;2024-03-02T03:20:00;100372.84;;;3.18;65.82
75424;BME280;64005;55.160;36.002;2024-03-02T03:22:30;100377.16;;;3.14;66.02
75424;BME280;64005;55.160;36.002;2024-03-02T03:24:57;100379.59;;;3.10;66.04
75424;BME280;64005;55.160;36.002;2024-03-02T03:27:25;100369.09;;;3.07;66.09
75424;BME280;64005;55.160;36.002;2024-03-02T03:29:52;100376.25;;;3.08;65.91
75424;BME280;64005;55.160;36.002;2024-03-02T03:32:21;100367.19;;;3.08;66.14
75424;BME280;64005;55.160;36.002;2024-03-02T03:34:49;100375.13;;;3.04;66.31
75424;BME280;64005;55.160;36.002;2024-03-02T03:37:16;100364.63;;;3.01;66.66
75424;BME280;64005;55.160;36.002;2024-03-02T03:39:43;100374.22;;;2.99;66.11
75424;BME280;64005;55.160;36.002;2024-03-02T03:42:11;100376.69;;;3.00;66.77
75424;BME280;64005;55.160;36.002;2024-03-02T03:44:38;100373.38;;;2.98;66.62
75424;BME280;64005;55.160;36.002;2024-03-02T03:47:07;100372.88;;;3.01;66.55
75424;BME280;64005;55.160;36.002;2024-03-02T03:49:36;100375.13;;;3.04;66.32
75424;BME280;64005;55.160;36.002;2024-03-02T03:52:04;100373.28;;;3.10;66.01
75424;BME280;64005;55.160;36.002;2024-03-02T03:54:31;100372.50;;;3.14;65.94
75424;BME280;64005;55.160;36.002;2024-03-02T03:56:58;100374.75;;;3.17;65.74
75424;BME280;64005;55.160;36.002;2024-03-02T03:59:26;100374.50;;;3.19;65.38
75424;BME280;64005;55.160;36.002;2024-03-02T04:01:53;100367.06;;;3.19;65.28
75424;BME280;64005;55.160;36.002;2024-03-02T04:04:20;100368.16;;;3.18;65.32
75424;BME280;64005;55.160;36.002;2024-03-02T04:06:49;100375.00;;;3.16;65.24
75424;BME280;64005;55.160;36.002;2024-03-02T04:09:16;100377.16;;;3.14;65.22
75424;BME280;64005;55.160;36.002;2024-03-02T04:11:44;100374.34;;;3.09;65.51
75424;BME280;64005;55.160;36.002;2024-03-02T04:14:11;100379.00;;;3.08;65.68
75424;BME280;64005;55.160;36.002;2024-03-02T04:16:39;100382.78;;;3.02;65.85
75424;BME280;64005;55.160;36.002;2024-03-02T04:19:06;100377.78;;;2.99;66.05
75424;BME280;64005;55.160;36.002;2024-03-02T04:21:34;100378.44;;;3.06;65.80
75424;BME280;64005;55.160;36.002;2024-03-02T04:24:03;100379.25;;;3.07;65.66
75424;BME280;64005;55.160;36.002;2024-03-02T04:26:30;100379.59;;;3.10;65.27
75424;BME280;64005;55.160;36.002;2024-03-02T04:28:57;100379.91;;;3.14;65.30
75424;BME280;64005;55.160;36.002;2024-03-02T04:31:25;100376.84;;;3.10;65.27
75424;BME280;64005;55.160;36.002;2024-03-02T04:33:52;100374.59;;;3.07;65.41
75424;BME280;64005;55.160;36.002;2024-03-02T04:36:19;100372.63;;;3.03;65.83
75424;BME280;64005;55.160;36.002;2024-03-02T04:38:47;100377.78;;;2.99;66.24
75424;BME280;64005;55.160;36.002;2024-03-02T04:41:16;100378.28;;;2.96;66.17
75424;BME280;64005;55.160;36.002;2024-03-02T04:43:44;100382.72;;;2.97;66.58
75424;BME280;64005;55.160;36.002;2024-03-02T04:46:11;100372.28;;;2.99;66.38
75424;BME280;64005;55.160;36.002;2024-03-02T04:48:38;100380.28;;;3.01;66.59
75424;BME280;64005;55.160;36.002;2024-03-02T04:51:05;100372.88;;;3.01;66.17
75424;BME280;64005;55.160;36.002;2024-03-02T04:53:33;100378.69;;;3.05;66.21
75424;BME280;64005;55.160;36.002;2024-03-02T04:56:00;100376.03;;;3.10;66.11
75424;BME280;64005;55.160;36.002;2024-03-02T04:58:46;100368.41;;;3.17;65.72
75424;BME280;64005;55.160;36.002;2024-03-02T05:01:13;100373.91;;;3.17;65.47
75424;BME280;64005;55.160;36.002;2024-03-02T05:03:42;100385.16;;;3.15;65.96
75424;BME280;64005;55.160;36.002;2024-03-02T05:06:09;100371.94;;;3.12;66.34
75424;BME280;64005;55.160;36.002;2024-03-02T05:08:37;100378.25;;;3.13;66.76
75424;BME280;64005;55.160;36.002;2024-03-02T05:11:04;100380.50;;;3.16;66.86
75424;BME280;64005;55.160;36.002;2024-03-02T05:13:46;100373.78;;;3.29;66.26
75424;BME280;64005;55.160;36.002;2024-03-02T05:16:14;100373.59;;;3.35;66.53
75424;BME280;64005;55.160;36.002;2024-03-02T05:18:41;100377.50;;;3.39;66.97
75424;BME280;64005;55.160;36.002;2024-03-02T05:21:08;100370.22;;;3.50;66.29
75424;BME280;64005;55.160;36.002;2024-03-02T05:23:35;100369.69;;;3.53;66.28
75424;BME280;64005;55.160;36.002;2024-03-02T05:26:03;100366.19;;;3.57;66.61
75424;BME280;64005;55.160;36.002;2024-03-02T05:28:31;100367.66;;;3.65;66.22
75424;BME280;64005;55.160;36.002;2024-03-02T05:31:00;100372.88;;;3.67;66.78
75424;BME280;64005;55.160;36.002;2024-03-02T05:33:27;100370.72;;;3.69;66.54
75424;BME280;64005;55.160;36.002;2024-03-02T05:35:57;100365.78;;;3.71;66.95
75424;BME280;64005;55.160;36.002;2024-03-02T05:38:24;100371.59;;;3.74;67.76
75424;BME280;64005;55.160;36.002;2024-03-02T05:40:52;100365.88;;;3.81;67.46
75424;BME280;64005;55.160;36.002;2024-03-02T05:43:19;100370.06;;;3.83;67.13
75424;BME280;64005;55.160;36.002;2024-03-02T05:45:46;100368.69;;;3.86;67.46
75424;BME280;64005;55.160;36.002;2024-03-02T05:48:15;100368.97;;;3.84;68.12
75424;BME280;64005;55.160;36.002;2024-03-02T05:50:42;100382.19;;;3.87;67.48
75424;BME280;64005;55.160;36.002;2024-03-02T05:53:10;100377.28;;;3.89;67.75
75424;BME280;64005;55.160;36.002;2024-03-02T05:55:37;100374.19;;;3.86;67.72
75424;BME280;64005;55.160;36.002;2024-03-02T05:58:04;100372.75;;;3.78;68.52
75424;BME280;64005;55.160;36.002;2024-03-02T06:00:48;100373.25;;;3.75;68.50
75424;BME280;64005;55.160;36.002;2024-03-02T06:03:17;100370.75;;;3.74;68.10
75424;BME280;64005;55.160;36.002;2024-03-02T06:05:44;100378.25;;;3.78;67.59
75424;BME280;64005;55.160;36.002;2024-03-02T06:08:14;100377.09;;;3.74;68.25
75424;BME280;64005;55.160;36.002;2024-03-02T06:10:42;100380.38;;;3.71;67.92
75424;BME280;64005;55.160;36.002;2024-03-02T06:13:10;100371.84;;;3.73;67.96
75424;BME280;64005;55.160;36.002;2024-03-02T06:15:38;100378.97;;;3.69;67.94
75424;BME280;64005;55.160;36.002;2024-03-02T06:18:05;100390.16;;;3.62;68.49
75424;BME280;64005;55.160;36.002;2024-03-02T06:20:35;100385.75;;;3.61;68.26
75424;BME280;64005;55.160;36.002;2024-03-02T06:23:03;100386.59;;;3.62;68.51
75424;BME280;64005;55.160;36.002;2024-03-02T06:25:31;100391.50;;;3.59;68.63
75424;BME280;64005;55.160;36.002;2024-03-02T06:27:58;100396.25;;;3.64;68.64
75424;BME280;64005;55.160;36.002;2024-03-02T06:30:26;100393.25;;;3.66;68.32
75424;BME280;64005;55.160;36.002;2024-03-02T06:32:53;100398.22;;;3.69;68.08
75424;BME280;64005;55.160;36.002;2024-03-02T06:35:21;100392.97;;;3.67;68.42
75424;BME280;64005;55.160;36.002;2024-03-02T06:37:50;100392.63;;;3.58;68.71
75424;BME280;64005;55.160;36.002;2024-03-02T06:40:17;100402.78;;;3.58;68.32
75424;BME280;64005;55.160;36.002;2024-03-02T06:42:45;100396.25;;;3.64;68.42
75424;BME280;64005;55.160;36.002;2024-03-02T06:45:13;100393.81;;;3.68;68.70
75424;BME280;64005;55.160;36.002;2024-03-02T06:47:40;100397.44;;;3.73;68.75
75424;BME280;64005;55.160;36.002;2024-03-02T06:50:08;100398.91;;;3.81;68.37
75424;BME280;64005;55.160;36.002;2024-03-02T06:52:36;100392.97;;;3.89;68.26
75424;BME280;64005;55.160;36.002;2024-03-02T06:55:06;100391.94;;;3.95;68.34
75424;BME280;64005;55.160;36.002;2024-03-02T06:57:34;100398.06;;;4.02;68.57
75424;BME280;64005;55.160;36.002;2024-03-02T07:00:00;100397.84;;;4.09;68.55
75424;BME280;64005;55.160;36.002;2024-03-02T07:02:30;100394.31;;;4.13;68.25
75424;BME280;64005;55.160;36.002;2024-03-02T07:04:58;100397.97;;;4.19;68.63
75424;BME280;64005;55.160;36.002;2024-03-02T07:07:25;100388.66;;;4.25;68.64
75424;BME280;64005;55.160;36.002;2024-03-02T07:09:53;100386.78;;;4.30;67.42
75424;BME280;64005;55.160;36.002;2024-03-02T07:12:21;100394.72;;;4.27;68.19
75424;BME280;64005;55.160;36.002;2024-03-02T07:14:49;100390.31;;;4.26;67.33
75424;BME280;64005;55.160;36.002;2024-03-02T07:17:33;100395.25;;;4.24;67.50
75424;BME280;64005;55.160;36.002;2024-03-02T07:20:03;100398.03;;;4.24;67.38
75424;BME280;64005;55.160;36.002;2024-03-02T07:22:30;100385.59;;;4.21;67.93
75424;BME280;64005;55.160;36.002;2024-03-02T07:24:58;100386.38;;;4.17;68.36
75424;BME280;64005;55.160;36.002;2024-03-02T07:27:26;100374.00;;;4.19;68.48
75424;BME280;64005;55.160;36.002;2024-03-02T07:29:54;100379.66;;;4.34;68.58
75424;BME280;64005;55.160;36.002;2024-03-02T07:32:21;100369.50;;;4.40;68.17
75424;BME280;64005;55.160;36.002;2024-03-02T07:34:49;100375.16;;;4.55;68.14
75424;BME280;64005;55.160;36.002;2024-03-02T07:37:17;100371.66;;;4.65;68.13
75424;BME280;64005;55.160;36.002;2024-03-02T07:39:46;100377.97;;;4.65;68.13
75424;BME280;64005;55.160;36.002;2024-03-02T07:42:13;100379.63;;;4.66;68.41
75424;BME280;64005;55.160;36.002;2024-03-02T07:44:43;100378.56;;;4.72;68.51
75424;BME280;64005;55.160;36.002;2024-03-02T07:47:11;100374.69;;;4.68;68.37
75424;BME280;64005;55.160;36.002;2024-03-02T07:49:38;100380.78;;;4.70;68.64
75424;BME280;64005;55.160;36.002;2024-03-02T07:52:06;100371.47;;;4.76;69.22
75424;BME280;64005;55.160;36.002;2024-03-02T07:54:33;100379.19;;;4.79;69.08
75424;BME280;64005;55.160;36.002;2024-03-02T07:57:00;100376.75;;;4.83;68.99
75424;BME280;64005;55.160;36.002;2024-03-02T07:59:28;100385.38;;;4.92;69.06
75424;BME280;64005;55.160;36.002;2024-03-02T08:01:57;100388.78;;;5.09;68.79
75424;BME280;64005;55.160;36.002;2024-03-02T08:04:24;100384.44;;;5.18;69.18
75424;BME280;64005;55.160;36.002;2024-03-02T08:06:51;100383.03;;;5.20;68.87
75424;BME280;64005;55.160;36.002;2024-03-02T08:09:20;100381.97;;;5.27;68.37
75424;BME280;64005;55.160;36.002;2024-03-02T08:11:47;100385.63;;;5.37;68.44
75424;BME280;64005;55.160;36.002;2024-03-02T08:14:15;100388.44;;;5.47;69.07
75424;BME280;64005;55.160;36.002;2024-03-02T08:16:42;100394.28;;;5.56;69.17
75424;BME280;64005;55.160;36.002;2024-03-02T08:19:11;100385.75;;;5.73;68.37
75424;BME280;64005;55.160;36.002;2024-03-02T08:21:38;100394.66;;;5.85;68.97
75424;BME280;64005;55.160;36.002;2024-03-02T08:24:06;100382.84;;;5.89;68.35
75424;BME280;64005;55.160;36.002;2024-03-02T08:26:33;100383.00;;;5.73;68.41
75424;BME280;64005;55.160;36.002;2024-03-02T08:29:01;100375.28;;;5.65;68.57
75424;BME280;64005;55.160;36.002;2024-03-02T08:31:29;100383.56;;;5.70;69.04
75424;BME280;64005;55.160;36.002;2024-03-02T08:33:56;100380.81;;;5.70;69.27
75424;BME280;64005;55.160;36.002;2024-03-02T08:36:26;100386.34;;;5.80;68.97
75424;BME280;64005;55.160;36.002;2024-03-02T08:38:53;100376.22;;;5.90;68.75
75424;BME280;64005;55.160;36.002;2024-03-02T08:41:21;100379.28;;;6.04;68.88
75424;BME280;64005;55.160;36.002;2024-03-02T08:43:49;100379.84;;;6.11;68.41
75424;BME280;64005;55.160;36.002;2024-03-02T08:46:16;100383.41;;;6.12;68.30
75424;BME280;64005;55.160;36.002;2024-03-02T08:48:43;100385.91;;;6.03;69.21
75424;BME280;64005;55.160;36.002;2024-03-02T08:51:11;100378.72;;;6.02;68.57
75424;BME280;64005;55.160;36.002;2024-03-02T08:53:39;100372.94;;;6.09;68.81
75424;BME280;64005;55.160;36.002;2024-03-02T08:56:08;100379.03;;;6.21;68.62
75424;BME280;64005;55.160;36.002;2024-03-02T08:58:35;100375.72;;;6.29;68.75
75424;BME280;64005;55.160;36.002;2024-03-02T09:01:03;100371.88;;;6.40;68.30
75424;BME280;64005;55.160;36.002;2024-03-02T09:03:30;100371.88;;;6.55;68.73
75424;BME280;64005;55.160;36.002;2024-03-02T09:05:59;100378.25;;;6.71;68.25
75424;BME280;64005;55.160;36.002;2024-03-02T09:08:27;100374.06;;;6.73;68.34
75424;BME280;64005;55.160;36.002;2024-03-02T09:10:56;100372.69;;;6.81;67.91
75424;BME280;64005;55.160;36.002;2024-03-02T09:13:23;100371.31;;;6.89;68.43
75424;BME280;64005;55.160;36.002;2024-03-02T09:15:51;100369.38;;;6.89;68.31
75424;BME280;64005;55.160;36.002;2024-03-02T09:18:18;100364.66;;;6.90;68.21
75424;BME280;64005;55.160;36.002;2024-03-02T09:20:46;100367.97;;;6.92;68.20
75424;BME280;64005;55.160;36.002;2024-03-02T09:23:13;100366.88;;;6.98;68.33
75424;BME280;64005;55.160;36.002;2024-03-02T09:25:41;100357.72;;;7.02;68.25
75424;BME280;64005;55.160;36.002;2024-03-02T09:28:11;100358.00;;;7.11;67.59
75424;BME280;64005;55.160;36.002;2024-03-02T09:30:54;100359.09;;;7.15;67.75
75424;BME280;64005;55.160;36.002;2024-03-02T09:33:21;100365.72;;;7.14;67.51
75424;BME280;64005;55.160;36.002;2024-03-02T09:35:49;100364.34;;;7.11;67.70
75424;BME280;64005;55.160;36.002;2024-03-02T09:38:16;100349.69;;;7.11;67.97
75424;BME280;64005;55.160;36.002;2024-03-02T09:40:44;100351.63;;;7.05;67.91
75424;BME280;64005;55.160;36.002;2024-03-02T09:43:13;100350.50;;;7.11;67.69
75424;BME280;64005;55.160;36.002;2024-03-02T09:45:40;100354.38;;;7.15;67.46
75424;BME280;64005;55.160;36.002;2024-03-02T09:48:08;100349.66;;;7.21;66.99
75424;BME280;64005;55.160;36.002;2024-03-02T09:50:35;100346.63;;;7.23;66.83
75424;BME280;64005;55.160;36.002;2024-03-02T09:53:12;100355.16;;;7.26;66.83
75424;BME280;64005;55.160;36.002;2024-03-02T09:55:39;100348.53;;;7.27;66.81
75424;BME280;64005;55.160;36.002;2024-03-02T09:58:09;100356.56;;;7.24;66.77
75424;BME280;64005;55.160;36.002;2024-03-02T10:00:39;100344.09;;;7.31;67.11
75424;BME280;64005;55.160;36.002;2024-03-02T10:03:11;100351.81;;;7.34;67.18
75424;BME280;64005;55.160;36.002;2024-03-02T10:05:39;100344.31;;;7.40;67.14
75424;BME280;64005;55.160;36.002;2024-03-02T10:08:07;100344.59;;;7.43;66.92
75424;BME280;64005;55.160;36.002;2024-03-02T10:10:36;100320.03;;;7.27;66.65
75424;BME280;64005;55.160;36.002;2024-03-02T10:13:06;100347.34;;;7.48;66.87
75424;BME280;64005;55.160;36.002;2024-03-02T10:15:34;100348.19;;;7.49;67.08
75424;BME280;64005;55.160;36.002;2024-03-02T10:18:05;100344.56;;;7.53;66.95
75424;BME280;64005;55.160;36.002;2024-03-02T10:20:32;100347.81;;;7.66;67.05
75424;BME280;64005;55.160;36.002;2024-03-02T10:26:20;100340.38;;;7.61;66.93
75424;BME280;64005;55.160;36.002;2024-03-02T10:28:47;100350.34;;;7.62;66.99
75424;BME280;64005;55.160;36.002;2024-03-02T10:31:16;100348.06;;;7.74;66.71
75424;BME280;64005;55.160;36.002;2024-03-02T10:33:45;100348.03;;;7.79;66.34
75424;BME280;64005;55.160;36.002;2024-03-02T10:36:13;100339.13;;;7.87;66.30
75424;BME280;64005;55.160;36.002;2024-03-02T10:38:41;100342.44;;;7.89;66.51
75424;BME280;64005;55.160;36.002;2024-03-02T10:41:08;100326.63;;;7.95;66.46
75424;BME280;64005;55.160;36.002;2024-03-02T10:43:36;100341.53;;;7.99;66.14
75424;BME280;64005;55.160;36.002;2024-03-02T10:46:04;100334.59;;;8.02;66.14
75424;BME280;64005;55.160;36.002;2024-03-02T10:48:32;100339.31;;;8.01;66.07
75424;BME280;64005;55.160;36.002;2024-03-02T10:51:03;100337.31;;;8.12;65.74
75424;BME280;64005;55.160;36.002;2024-03-02T10:53:30;100333.69;;;8.11;65.42
75424;BME280;64005;55.160;36.002;2024-03-02T10:55:58;100336.50;;;8.06;65.37
75424;BME280;64005;55.160;36.002;2024-03-02T10:58:32;100339.56;;;8.05;65.13
75424;BME280;64005;55.160;36.002;2024-03-02T11:01:02;100337.94;;;7.98;65.40
75424;BME280;64005;55.160;36.002;2024-03-02T11:03:33;100337.97;;;7.93;65.56
75424;BME280;64005;55.160;36.002;2024-03-02T11:06:03;100325.56;;;7.86;65.89
75424;BME280;64005;55.160;36.002;2024-03-02T11:08:34;100320.31;;;7.84;65.97
75424;BME280;64005;55.160;36.002;2024-03-02T11:11:07;100328.50;;;7.99;65.92
75424;BME280;64005;55.160;36.002;2024-03-02T11:13:38;100328.16;;;8.11;65.98
75424;BME280;64005;55.160;36.002;2024-03-02T11:16:15;100328.94;;;8.22;65.73
75424;BME280;64005;55.160;36.002;2024-03-02T11:18:47;100324.41;;;8.36;65.81
75424;BME280;64005;55.160;36.002;2024-03-02T11:21:18;100314.69;;;8.38;65.44
75424;BME280;64005;55.160;36.002;2024-03-02T11:23:46;100296.97;;;8.34;65.60
75424;BME280;64005;55.160;36.002;2024-03-02T11:29:43;100322.09;;;8.48;65.54
75424;BME280;64005;55.160;36.002;2024-03-02T11:32:15;100321.00;;;8.49;64.86
75424;BME280;64005;55.160;36.002;2024-03-02T11:34:47;100305.84;;;8.36;64.55
75424;BME280;64005;55.160;36.002;2024-03-02T11:37:17;100304.81;;;8.22;64.64
75424;BME280;64005;55.160;36.002;2024-03-02T11:39:46;100320.66;;;8.12;64.42
75424;BME280;64005;55.160;36.002;2024-03-02T11:42:15;100317.38;;;8.05;64.07
75424;BME280;64005;55.160;36.002;2024-03-02T11:44:44;100311.88;;;7.99;64.11
75424;BME280;64005;55.160;36.002;2024-03-02T11:47:14;100314.94;;;8.03;64.05
75424;BME280;64005;55.160;36.002;2024-03-02T11:49:43;100316.88;;;8.03;64.26
75424;BME280;64005;55.160;36.002;2024-03-02T11:52:48;100323.81;;;8.00;64.17
75424;BME280;64005;55.160;36.002;2024-03-02T11:55:16;100307.47;;;7.98;64.19
75424;BME280;64005;55.160;36.002;2024-03-02T11:57:46;100317.50;;;7.89;64.47
75424;BME280;64005;55.160;36.002;2024-03-02T12:00:17;100317.88;;;7.78;64.46
75424;BME280;64005;55.160;36.002;2024-03-02T12:02:45;100309.84;;;7.76;64.44
75424;BME280;64005;55.160;36.002;2024-03-02T12:05:15;100307.06;;;7.76;64.30
75424;BME280;64005;55.160;36.002;2024-03-02T12:07:44;100298.72;;;7.81;64.36
75424;BME280;64005;55.160;36.002;2024-03-02T12:10:15;100313.13;;;7.78;64.45
75424;BME280;64005;55.160;36.002;2024-03-02T12:12:42;100300.94;;;7.79;64.37
75424;BME280;64005;55.160;36.002;2024-03-02T12:15:09;100302.88;;;7.84;64.11
75424;BME280;64005;55.160;36.002;2024-03-02T12:17:37;100299.47;;;7.92;64.06
75424;BME280;64005;55.160;36.002;2024-03-02T12:20:05;100299.69;;;8.01;64.04
75424;BME280;64005;55.160;36.002;2024-03-02T12:22:33;100301.91;;;7.98;63.57
75424;BME280;64005;55.160;36.002;2024-03-02T12:25:00;100304.19;;;7.91;63.26
75424;BME280;64005;55.160;36.002;2024-03-02T12:27:31;100301.25;;;7.73;63.30
75424;BME280;64005;55.160;36.002;2024-03-02T12:29:58;100300.53;;;7.57;63.71
75424;BME280;64005;55.160;36.002;2024-03-02T12:32:26;100293.84;;;7.58;63.78
75424;BME280;64005;55.160;36.002;2024-03-02T12:34:55;100293.59;;;7.54;63.77
75424;BME280;64005;55.160;36.002;2024-03-02T12:37:22;100291.38;;;7.56;63.60
75424;BME280;64005;55.160;36.002;2024-03-02T12:39:49;100293.06;;;7.52;62.91
75424;BME280;64005;55.160;36.002;2024-03-02T12:42:17;100292.84;;;7.44;63.10
75424;BME280;64005;55.160;36.002;2024-03-02T12:44:46;100290.63;;;7.41;63.45
75424;BME280;64005;55.160;36.002;2024-03-02T12:47:13;100287.59;;;7.37;63.26
75424;BME280;64005;55.160;36.002;2024-03-02T12:49:41;100302.28;;;7.38;62.94
75424;BME280;64005;55.160;36.002;2024-03-02T12:52:08;100297.28;;;7.40;62.89
75424;BME280;64005;55.160;36.002;2024-03-02T12:54:38;100300.31;;;7.43;62.66
75424;BME280;64005;55.160;36.002;2024-03-02T12:57:06;100293.69;;;7.34;62.63
75424;BME280;64005;55.160;36.002;2024-03-02T12:59:34;100292.31;;;7.32;62.73
75424;BME280;64005;55.160;36.002;2024-03-02T13:02:04;100295.94;;;7.27;63.49
75424;BME280;64005;55.160;36.002;2024-03-02T13:04:32;100296.22;;;7.26;63.38